Beaudry, Arkansas
Current Conditions -  °F | °C
As of 2:53 PM on Tuesday 27 Jan 2015 (Local Time) from KHOT Reporting Station
Clear Clear  
Wind Chill: 71°   Ceiling: Unl
Heat Index: 71°   Visibility: 10mi
Dew Point: 32°   Wind: 5mph
Humidity: 24%   Direction: NA
Pressure: 30.1"   Gusts: NA
Location:  34.7091°N, 93.2208°W
Report Text: KHOT 272053Z AUTO VRB04KT 10SM CLR 22/00 A3010 RMK AO2 SLP192 T02170000 56013
Loading
Personal Weather Stations






























Interactive Weather Map New forecast layout! Learn more

10-Day Weather Forecast

Advertisements
Track Severe Weather on mobile